Pagrindinis puslapis
METAR-TAF:

METAR-TAF

Oro uostai :

Balikesyras, Turkija

platuma: 39-37N, ilguma: 027-55E, Aukštis: 101 m

Dabartinis oras

Ataskaita buvo paskelbta 49 minutes, ne 19:50 UTC
Vėjas 4 kt iš Pietvakarių
Temperatūra 7°C
Drėgmė 100%
Slėgis 1025 hPa
Matomumas: 2800 m
rūkana

METAR: LTBF 151950Z 23004KT 2800 BR NSC 07/07 Q1025 NOSIG

Laikas: 23:39 (20:39 UTC)

Prognozė

Ataskaita buvo paskelbta 59 minutes, ne 19:40 UTC
Prognozė galioja nuo 15 metu 21 UTC su 16 metu 06 UTC
Vėjas 2 kt nuo kintamojo kryptimis
Matomumas: 2000 m
rūkana
Tikimybė 30%
nuo 16 metu 00 UTC su 16 metu 03 UTC
Matomumas: 0200 m
ne aukštis 200 ft
rūkas

TAF: LTBF 151940Z 1521/1606 VRB02KT 2000 BR NSC PROB30 1600/1603 0200 FG VV002

Orai ataskaitas ir orų prognozės (METAR, TAF).

turimą stotys yra geltonos ir raudonos taškus žemėlapyje.

Perkelti pele per norėdami pamatyti stoties vardą.

Tada spustelėkite, norėdami matyti oro stebėjimo ir prognozės.

Norėdami pakeisti žemėlapį: spustelėkite ant žalios mygtukų su juodo kryžiaus žemyn,; žalią mygtuką su brūkšneliu, jei norite nutolinti; arba žalių rodyklių gretimoms žemėlapius.


METAR-TAF: